MSC Cordoba — A8OF8 — position and weather

sailwx.info

Track history (hours):
 
Tides and Currents Weather Stations Pressure Air Temp Water Temp Dewpoint Dewpoint Depression Visibility Wind Speed Wind Dir Waves Ship Positions

MSC Cordoba

Last reported at 2016-May-24 15:33 UTC. Time now 2016-May-24 21:29 UTC.
Position N 39°02' W 010°08'.

Length 275 m; draft 10.9 m.

Type: Cargo ship. MMSI: 636091473.

Date/timePositionNaut miles runAvg speedWind from/ knotsBaromVisibWave heightAir tempDewpointWater temp
2016-May-24 15:33N 39°02' W 010°08'70718.5
2016-May-23 01:26N 49°48' W 003°24'1820.7
2016-May-23 00:33N 49°57' W 002°60'4119.1
2016-May-22 22:24N 50°08' W 001°58'1416.7
2016-May-22 21:33N 50°12' W 001°37'1616.0
2016-May-22 20:33N 50°16' W 001°13'1616.1
2016-May-22 19:33N 50°21' W 000°49'1817.6
2016-May-22 18:33N 50°25' W 000°22'2019.5
2016-May-22 17:33N 50°30' E 000°08'2120.5
2016-May-22 16:31N 50°37' E 000°39'2320.1
2016-May-22 15:24N 50°50' E 001°08'1618.9
2016-May-22 14:33N 51°01' E 001°27'1717.3
2016-May-22 13:33N 51°13' E 001°46'1616.0
2016-May-22 12:33N 51°24' E 002°05'1817.2
2016-May-22 11:31N 51°23' E 002°33'1313.3
2016-May-22 10:33N 51°22' E 002°54'1313.3
2016-May-22 09:34N 51°25' E 003°15'1313.3
2016-May-22 08:33N 51°26' E 003°36'1212.2
2016-May-22 07:34N 51°22' E 003°55'1111.5
2016-May-22 06:34N 51°23' E 004°13'4 3.7
2016-May-22 05:33N 51°21' E 004°17'2 1.8
2016-May-22 04:33N 51°19' E 004°19'1 0.7
2016-May-22 03:30N 51°20' E 004°20'0 0.0
2016-May-22 02:23N 51°20' E 004°20'0 0.0
2016-May-22 00:28N 51°20' E 004°20'0 0.0
2016-May-21 23:25N 51°20' E 004°20'0 0.0
2016-May-21 22:21N 51°20' E 004°20'0 0.0
2016-May-21 21:21N 51°20' E 004°20'0 0.0
2016-May-21 20:32N 51°20' E 004°20'0 0.0
2016-May-21 19:32N 51°20' E 004°20'0 0.0
2016-May-21 18:32N 51°20' E 004°20'0 0.0
2016-May-21 17:25N 51°20' E 004°20'0 0.0
2016-May-21 16:19N 51°20' E 004°20'0 0.0
2016-May-21 15:30N 51°20' E 004°20'0 0.0
2016-May-21 14:30N 51°20' E 004°20'0 0.0
2016-May-21 13:29N 51°20' E 004°20'0 0.0
2016-May-21 12:29N 51°20' E 004°20'0 0.0
2016-May-21 11:29N 51°20' E 004°20'0 0.0
2016-May-21 10:28N 51°20' E 004°20'0 0.0
2016-May-21 09:10N 51°20' E 004°20'0 0.0
2016-May-21 08:33N 51°20' E 004°20'0 0.0
2016-May-21 07:33N 51°20' E 004°20'0 0.0
2016-May-21 06:26N 51°20' E 004°20'0 0.0
2016-May-21 05:32N 51°20' E 004°20'0 0.0
2016-May-21 04:29N 51°20' E 004°20'0 0.0
2016-May-21 03:31N 51°20' E 004°20'0 0.0
2016-May-21 02:31N 51°20' E 004°20'0 0.0
2016-May-21 01:30N 51°20' E 004°20'0 0.0
2016-May-21 00:33N 51°20' E 004°20'0 0.3
2016-May-20 23:34N 51°20' E 004°20'2 1.8
2016-May-20 22:29N 51°21' E 004°17'1 0.6
2016-May-20 21:33N 51°21' E 004°17'5 4.7
2016-May-20 20:33N 51°24' E 004°11'8 8.3
2016-May-20 19:34N 51°24' E 003°57'8 7.9
2016-May-20 18:33N 51°22' E 003°45'7 7.4
2016-May-20 17:33N 51°25' E 003°34'1211.9
2016-May-20 16:33N 51°25' E 003°15'10 9.5
2016-May-20 15:33N 51°29' E 003°01'1613.8
2016-May-20 14:24N 51°43' E 003°13'7 0.3
2016-May-19 18:25N 51°48' E 003°20'5 6.2
2016-May-19 17:33N 51°53' E 003°20'1312.8
2016-May-19 16:33N 52°03' E 003°34'1313.1
2016-May-19 15:33N 52°02' E 003°55'7 6.8
2016-May-19 14:33N 51°58' E 004°03'0 0.0
2016-May-19 13:27N 51°58' E 004°03'0 0.0
2016-May-19 12:33N 51°58' E 004°03'0 0.0
2016-May-19 11:32N 51°58' E 004°03'1 0.9
2016-May-19 10:33N 51°58' E 004°05'1010.0
2016-May-19 09:34N 51°60' E 003°49'9 9.0
2016-May-19 08:33N 51°57' E 003°35'2 1.6
2016-May-19 07:28N 51°55' E 003°34'0 0.0
2016-May-19 06:31N 51°55' E 003°34'0 0.0
2016-May-19 04:24N 51°55' E 003°34'0 0.0
2016-May-19 02:11N 51°55' E 003°34'0 0.0
2016-May-19 00:28N 51°55' E 003°34'0 0.0
2016-May-18 23:24N 51°55' E 003°34'0 0.0
2016-May-18 22:33N 51°55' E 003°34'0 0.1
2016-May-18 21:30N 51°55' E 003°34'0 0.0
2016-May-18 20:32N 51°55' E 003°34'0 0.0
2016-May-18 19:23N 51°55' E 003°34'0 0.0
2016-May-18 18:16N 51°55' E 003°34'0 0.0
2016-May-18 17:24N 51°55' E 003°34'0 0.0
2016-May-18 16:31N 51°55' E 003°34'2210.9
2016-May-18 14:26N 51°38' E 003°11'1415.9
2016-May-18 13:33N 51°25' E 003°03'1817.8
2016-May-18 12:33N 51°26' E 003°32'9 8.7
2016-May-18 11:33N 51°22' E 003°45'10 9.7
2016-May-18 10:33N 51°26' E 003°59'9 8.9
2016-May-18 09:33N 51°24' E 004°13'6 5.5
2016-May-18 08:26N 51°18' E 004°16'0 0.0
2016-May-18 07:32N 51°18' E 004°16'0 0.0
2016-May-18 06:32N 51°18' E 004°16'0 0.0
2016-May-18 05:31N 51°18' E 004°16'0 0.0
2016-May-18 04:31N 51°18' E 004°16'0 0.0
2016-May-18 03:33N 51°18' E 004°16'0 0.0
2016-May-18 02:33N 51°18' E 004°16'0 0.0
2016-May-18 01:33N 51°18' E 004°16'0 0.0
2016-May-18 00:32N 51°18' E 004°16'0 0.0
2016-May-17 23:29N 51°18' E 004°16'0 0.0
2016-May-17 22:28N 51°18' E 004°16'0 0.0
2016-May-17 21:31N 51°18' E 004°16'0 0.0
2016-May-17 20:27N 51°18' E 004°16'0 0.0
2016-May-17 19:33N 51°18' E 004°16'0 0.0
2016-May-17 18:32N 51°18' E 004°16'0 0.0
2016-May-17 16:23N 51°18' E 004°16'1 0.8
2016-May-17 15:33N 51°18' E 004°16'4 4.4
2016-May-17 14:33N 51°22' E 004°13'8 8.0
2016-May-17 13:32N 51°25' E 004°01'9 9.2
2016-May-17 12:33N 51°21' E 003°49'1110.6
2016-May-17 11:33N 51°25' E 003°34'1514.8
2016-May-17 10:33N 51°24' E 003°10'9 8.5
2016-May-17 09:33N 51°32' E 003°07'2511.6
2016-May-17 07:21N 51°57' E 003°18'1620.6
2016-May-17 06:33N 52°13' E 003°22'9121.3
2016-May-17 02:18N 53°30' E 004°42'1519.9
2016-May-17 01:33N 53°36' E 005°05'2020.2
2016-May-17 00:33N 53°42' E 005°37'2120.8
2016-May-16 23:34N 53°49' E 006°10'2121.1
2016-May-16 22:33N 53°54' E 006°45'2121.4
2016-May-16 21:34N 53°58' E 007°21'1716.9
2016-May-16 20:34N 53°53' E 007°48'1514.6
2016-May-16 19:33N 53°46' E 008°10'1515.2
2016-May-16 18:33N 53°36' E 008°30'2 2.3
2016-May-16 17:30N 53°34' E 008°32'0 0.0
2016-May-16 16:30N 53°34' E 008°32'0 0.0
2016-May-16 15:29N 53°34' E 008°32'0 0.0
2016-May-16 14:32N 53°34' E 008°32'0 0.0
2016-May-16 13:31N 53°34' E 008°32'0 0.0
2016-May-16 12:31N 53°34' E 008°32'0 0.0
2016-May-16 11:31N 53°34' E 008°32'0 0.0
2016-May-16 10:33N 53°34' E 008°32'0 0.0
2016-May-16 09:33N 53°34' E 008°32'0 0.0
2016-May-16 08:32N 53°34' E 008°32'0 0.0
2016-May-16 07:32N 53°34' E 008°32'0 0.0
2016-May-16 06:32N 53°34' E 008°32'0 0.0
2016-May-16 05:31N 53°34' E 008°32'0 0.0
2016-May-16 04:31N 53°34' E 008°32'0 0.0
2016-May-16 03:33N 53°34' E 008°32'0 0.0
2016-May-16 02:30N 53°34' E 008°32'0 0.0
2016-May-16 01:32N 53°34' E 008°32'0 0.0
2016-May-16 00:32N 53°34' E 008°32'0 0.0
2016-May-15 23:31N 53°34' E 008°32'0 0.0
2016-May-15 22:31N 53°34' E 008°32'0 0.0
2016-May-15 21:31N 53°34' E 008°32'0 0.0
2016-May-15 20:33N 53°34' E 008°32'0 0.3
2016-May-15 19:34N 53°35' E 008°32'1110.6
2016-May-15 18:33N 53°42' E 008°19'1414.2
2016-May-15 17:34N 53°51' E 008°00'1212.1
2016-May-15 16:33N 53°53' E 007°40'1010.4
2016-May-15 15:33N 53°53' E 007°23'1211.7
2016-May-15 14:33N 53°51' E 007°03'1616.0
2016-May-15 13:34N 53°47' E 006°37'1717.4
2016-May-15 12:33N 53°43' E 006°08'1717.5
2016-May-15 11:34N 53°37' E 005°40'1817.5
2016-May-15 10:33N 53°32' E 005°12'3716.5
2016-May-15 08:20N 53°07' E 004°26'1317.3
2016-May-15 07:33N 52°55' E 004°17'3316.1
2016-May-15 05:32N 52°30' E 003°43'7314.6
2016-May-15 00:33N 51°51' E 002°03'1515.5
2016-May-14 23:33N 51°51' E 001°38'1211.6
2016-May-14 22:33N 51°55' E 001°20'2 2.3
2016-May-14 21:32N 51°57' E 001°18'0 0.0
2016-May-14 20:31N 51°57' E 001°18'0 0.0
2016-May-14 19:31N 51°57' E 001°18'0 0.0
2016-May-14 18:24N 51°57' E 001°18'0 0.0
2016-May-14 17:30N 51°57' E 001°18'0 0.0
2016-May-14 16:29N 51°57' E 001°18'  
Track history (hours):
 
Tides and Currents Weather Stations Pressure Air Temp Water Temp Dewpoint Dewpoint Depression Visibility Wind Speed Wind Dir Waves Ship Positions

MSC Cordoba

Last reported at 2016-May-24 15:33 UTC. Time now 2016-May-24 21:29 UTC.
Position N 39°02' W 010°08'.

Length 275 m; draft 10.9 m.

Type: Cargo ship. MMSI: 636091473.

Date/timePositionNaut miles runAvg speedWind from/ knotsBaromVisibWave heightAir tempDewpointWater temp
2016-May-24 15:33N 39°02' W 010°08'70718.5
2016-May-23 01:26N 49°48' W 003°24'1820.7
2016-May-23 00:33N 49°57' W 002°60'4119.1
2016-May-22 22:24N 50°08' W 001°58'1416.7
2016-May-22 21:33N 50°12' W 001°37'1616.0
2016-May-22 20:33N 50°16' W 001°13'1616.1
2016-May-22 19:33N 50°21' W 000°49'1817.6
2016-May-22 18:33N 50°25' W 000°22'2019.5
2016-May-22 17:33N 50°30' E 000°08'2120.5
2016-May-22 16:31N 50°37' E 000°39'2320.1
2016-May-22 15:24N 50°50' E 001°08'1618.9
2016-May-22 14:33N 51°01' E 001°27'1717.3
2016-May-22 13:33N 51°13' E 001°46'1616.0
2016-May-22 12:33N 51°24' E 002°05'1817.2
2016-May-22 11:31N 51°23' E 002°33'1313.3
2016-May-22 10:33N 51°22' E 002°54'1313.3
2016-May-22 09:34N 51°25' E 003°15'1313.3
2016-May-22 08:33N 51°26' E 003°36'1212.2
2016-May-22 07:34N 51°22' E 003°55'1111.5
2016-May-22 06:34N 51°23' E 004°13'4 3.7
2016-May-22 05:33N 51°21' E 004°17'2 1.8
2016-May-22 04:33N 51°19' E 004°19'1 0.7
2016-May-22 03:30N 51°20' E 004°20'0 0.0
2016-May-22 02:23N 51°20' E 004°20'0 0.0
2016-May-22 00:28N 51°20' E 004°20'0 0.0
2016-May-21 23:25N 51°20' E 004°20'0 0.0
2016-May-21 22:21N 51°20' E 004°20'0 0.0
2016-May-21 21:21N 51°20' E 004°20'0 0.0
2016-May-21 20:32N 51°20' E 004°20'0 0.0
2016-May-21 19:32N 51°20' E 004°20'0 0.0
2016-May-21 18:32N 51°20' E 004°20'0 0.0
2016-May-21 17:25N 51°20' E 004°20'0 0.0
2016-May-21 16:19N 51°20' E 004°20'0 0.0
2016-May-21 15:30N 51°20' E 004°20'0 0.0
2016-May-21 14:30N 51°20' E 004°20'0 0.0
2016-May-21 13:29N 51°20' E 004°20'0 0.0
2016-May-21 12:29N 51°20' E 004°20'0 0.0
2016-May-21 11:29N 51°20' E 004°20'0 0.0
2016-May-21 10:28N 51°20' E 004°20'0 0.0
2016-May-21 09:10N 51°20' E 004°20'0 0.0
2016-May-21 08:33N 51°20' E 004°20'0 0.0
2016-May-21 07:33N 51°20' E 004°20'0 0.0
2016-May-21 06:26N 51°20' E 004°20'0 0.0
2016-May-21 05:32N 51°20' E 004°20'0 0.0
2016-May-21 04:29N 51°20' E 004°20'0 0.0
2016-May-21 03:31N 51°20' E 004°20'0 0.0
2016-May-21 02:31N 51°20' E 004°20'0 0.0
2016-May-21 01:30N 51°20' E 004°20'0 0.0
2016-May-21 00:33N 51°20' E 004°20'0 0.3
2016-May-20 23:34N 51°20' E 004°20'2 1.8
2016-May-20 22:29N 51°21' E 004°17'1 0.6
2016-May-20 21:33N 51°21' E 004°17'5 4.7
2016-May-20 20:33N 51°24' E 004°11'8 8.3
2016-May-20 19:34N 51°24' E 003°57'8 7.9
2016-May-20 18:33N 51°22' E 003°45'7 7.4
2016-May-20 17:33N 51°25' E 003°34'1211.9
2016-May-20 16:33N 51°25' E 003°15'10 9.5
2016-May-20 15:33N 51°29' E 003°01'1613.8
2016-May-20 14:24N 51°43' E 003°13'7 0.3
2016-May-19 18:25N 51°48' E 003°20'5 6.2
2016-May-19 17:33N 51°53' E 003°20'1312.8
2016-May-19 16:33N 52°03' E 003°34'1313.1
2016-May-19 15:33N 52°02' E 003°55'7 6.8
2016-May-19 14:33N 51°58' E 004°03'0 0.0
2016-May-19 13:27N 51°58' E 004°03'0 0.0
2016-May-19 12:33N 51°58' E 004°03'0 0.0
2016-May-19 11:32N 51°58' E 004°03'1 0.9
2016-May-19 10:33N 51°58' E 004°05'1010.0
2016-May-19 09:34N 51°60' E 003°49'9 9.0
2016-May-19 08:33N 51°57' E 003°35'2 1.6
2016-May-19 07:28N 51°55' E 003°34'0 0.0
2016-May-19 06:31N 51°55' E 003°34'0 0.0
2016-May-19 04:24N 51°55' E 003°34'0 0.0
2016-May-19 02:11N 51°55' E 003°34'0 0.0
2016-May-19 00:28N 51°55' E 003°34'0 0.0
2016-May-18 23:24N 51°55' E 003°34'0 0.0
2016-May-18 22:33N 51°55' E 003°34'0 0.1
2016-May-18 21:30N 51°55' E 003°34'0 0.0
2016-May-18 20:32N 51°55' E 003°34'0 0.0
2016-May-18 19:23N 51°55' E 003°34'0 0.0
2016-May-18 18:16N 51°55' E 003°34'0 0.0
2016-May-18 17:24N 51°55' E 003°34'0 0.0
2016-May-18 16:31N 51°55' E 003°34'2210.9
2016-May-18 14:26N 51°38' E 003°11'1415.9
2016-May-18 13:33N 51°25' E 003°03'1817.8
2016-May-18 12:33N 51°26' E 003°32'9 8.7
2016-May-18 11:33N 51°22' E 003°45'10 9.7
2016-May-18 10:33N 51°26' E 003°59'9 8.9
2016-May-18 09:33N 51°24' E 004°13'6 5.5
2016-May-18 08:26N 51°18' E 004°16'0 0.0
2016-May-18 07:32N 51°18' E 004°16'0 0.0
2016-May-18 06:32N 51°18' E 004°16'0 0.0
2016-May-18 05:31N 51°18' E 004°16'0 0.0
2016-May-18 04:31N 51°18' E 004°16'0 0.0
2016-May-18 03:33N 51°18' E 004°16'0 0.0
2016-May-18 02:33N 51°18' E 004°16'0 0.0
2016-May-18 01:33N 51°18' E 004°16'0 0.0
2016-May-18 00:32N 51°18' E 004°16'0 0.0
2016-May-17 23:29N 51°18' E 004°16'0 0.0
2016-May-17 22:28N 51°18' E 004°16'0 0.0
2016-May-17 21:31N 51°18' E 004°16'0 0.0
2016-May-17 20:27N 51°18' E 004°16'0 0.0
2016-May-17 19:33N 51°18' E 004°16'0 0.0
2016-May-17 18:32N 51°18' E 004°16'0 0.0
2016-May-17 16:23N 51°18' E 004°16'1 0.8
2016-May-17 15:33N 51°18' E 004°16'4 4.4
2016-May-17 14:33N 51°22' E 004°13'8 8.0
2016-May-17 13:32N 51°25' E 004°01'9 9.2
2016-May-17 12:33N 51°21' E 003°49'1110.6
2016-May-17 11:33N 51°25' E 003°34'1514.8
2016-May-17 10:33N 51°24' E 003°10'9 8.5
2016-May-17 09:33N 51°32' E 003°07'2511.6
2016-May-17 07:21N 51°57' E 003°18'1620.6
2016-May-17 06:33N 52°13' E 003°22'9121.3
2016-May-17 02:18N 53°30' E 004°42'1519.9
2016-May-17 01:33N 53°36' E 005°05'2020.2
2016-May-17 00:33N 53°42' E 005°37'2120.8
2016-May-16 23:34N 53°49' E 006°10'2121.1
2016-May-16 22:33N 53°54' E 006°45'2121.4
2016-May-16 21:34N 53°58' E 007°21'1716.9
2016-May-16 20:34N 53°53' E 007°48'1514.6
2016-May-16 19:33N 53°46' E 008°10'1515.2
2016-May-16 18:33N 53°36' E 008°30'2 2.3
2016-May-16 17:30N 53°34' E 008°32'0 0.0
2016-May-16 16:30N 53°34' E 008°32'0 0.0
2016-May-16 15:29N 53°34' E 008°32'0 0.0
2016-May-16 14:32N 53°34' E 008°32'0 0.0
2016-May-16 13:31N 53°34' E 008°32'0 0.0
2016-May-16 12:31N 53°34' E 008°32'0 0.0
2016-May-16 11:31N 53°34' E 008°32'0 0.0
2016-May-16 10:33N 53°34' E 008°32'0 0.0
2016-May-16 09:33N 53°34' E 008°32'0 0.0
2016-May-16 08:32N 53°34' E 008°32'0 0.0
2016-May-16 07:32N 53°34' E 008°32'0 0.0
2016-May-16 06:32N 53°34' E 008°32'0 0.0
2016-May-16 05:31N 53°34' E 008°32'0 0.0
2016-May-16 04:31N 53°34' E 008°32'0 0.0
2016-May-16 03:33N 53°34' E 008°32'0 0.0
2016-May-16 02:30N 53°34' E 008°32'0 0.0
2016-May-16 01:32N 53°34' E 008°32'0 0.0
2016-May-16 00:32N 53°34' E 008°32'0 0.0
2016-May-15 23:31N 53°34' E 008°32'0 0.0
2016-May-15 22:31N 53°34' E 008°32'0 0.0
2016-May-15 21:31N 53°34' E 008°32'0 0.0
2016-May-15 20:33N 53°34' E 008°32'0 0.3
2016-May-15 19:34N 53°35' E 008°32'1110.6
2016-May-15 18:33N 53°42' E 008°19'1414.2
2016-May-15 17:34N 53°51' E 008°00'1212.1
2016-May-15 16:33N 53°53' E 007°40'1010.4
2016-May-15 15:33N 53°53' E 007°23'1211.7
2016-May-15 14:33N 53°51' E 007°03'1616.0
2016-May-15 13:34N 53°47' E 006°37'1717.4
2016-May-15 12:33N 53°43' E 006°08'1717.5
2016-May-15 11:34N 53°37' E 005°40'1817.5
2016-May-15 10:33N 53°32' E 005°12'3716.5
2016-May-15 08:20N 53°07' E 004°26'1317.3
2016-May-15 07:33N 52°55' E 004°17'3316.1
2016-May-15 05:32N 52°30' E 003°43'7314.6
2016-May-15 00:33N 51°51' E 002°03'1515.5
2016-May-14 23:33N 51°51' E 001°38'1211.6
2016-May-14 22:33N 51°55' E 001°20'2 2.3
2016-May-14 21:32N 51°57' E 001°18'0 0.0
2016-May-14 20:31N 51°57' E 001°18'0 0.0
2016-May-14 19:31N 51°57' E 001°18'0 0.0
2016-May-14 18:24N 51°57' E 001°18'0 0.0
2016-May-14 17:30N 51°57' E 001°18'0 0.0
2016-May-14 16:29N 51°57' E 001°18'  

Dump ship's entire track history